Time;durP1;ratioP1;P1;durP2;ratioP2;P2;SDS_P1;SDS_P2;PMS_P1;PMS_P2;Temp;Humidity;BMP_temperature;BMP_pressure;BME280_temperature;BME280_humidity;BME280_pressure;Samples;Min_cycle;Max_cycle;Signal;HPM_P1;HPM_P2
2022/07/20 00:01:27;;;;;;;13.60;5.78;;;;;;;;;;4820229;29;20065;-69
2022/07/20 00:03:58;;;;;;;10.77;5.57;;;;;;;;;;4820555;29;20069;-68
2022/07/20 00:06:29;;;;;;;9.98;4.88;;;;;;;;;;4808077;29;20511;-68
2022/07/20 00:11:48;;;;;;;11.68;5.60;;;;;;;;;;4838006;29;20140;-69
2022/07/20 00:14:18;;;;;;;12.07;5.53;;;;;;;;;;4778558;29;20495;-69
2022/07/20 00:16:48;;;;;;;10.10;5.40;;;;;;;;;;4838171;29;20482;-69
2022/07/20 00:19:19;;;;;;;8.73;5.22;;;;;;;;;;4801581;29;20566;-69
2022/07/20 00:21:50;;;;;;;10.32;4.90;;;;;;;;;;4765756;30;20823;-69
2022/07/20 00:24:20;;;;;;;10.13;5.70;;;;;;;;;;4765878;30;20062;-68
2022/07/20 00:26:50;;;;;;;9.95;5.00;;;;;;;;;;4727688;30;20068;-69
2022/07/20 00:29:21;;;;;;;8.43;4.80;;;;;;;;;;4689977;30;20082;-71
2022/07/20 00:31:51;;;;;;;11.55;5.22;;;;;;;;;;4713546;30;20462;-67
2022/07/20 00:34:22;;;;;;;9.48;5.10;;;;;;;;;;4729329;30;20075;-68
2022/07/20 00:36:52;;;;;;;9.32;5.07;;;;;;;;;;4746108;30;20052;-69
2022/07/20 00:39:22;;;;;;;11.95;5.72;;;;;;;;;;4674813;30;20060;-68
2022/07/20 00:41:53;;;;;;;9.07;5.10;;;;;;;;;;4711319;30;20106;-69
2022/07/20 00:44:28;;;;;;;9.95;5.28;;;;;;;;;;4711718;30;20065;-70
2022/07/20 00:46:59;;;;;;;11.73;5.82;;;;;;;;;;4711902;30;20523;-70
2022/07/20 00:49:29;;;;;;;10.65;5.18;;;;;;;;;;4712876;30;20073;-69
2022/07/20 00:51:59;;;;;;;13.82;5.55;;;;;;;;;;4736065;30;20558;-70
2022/07/20 00:54:30;;;;;;;14.90;5.32;;;;;;;;;;4744913;30;20429;-70
2022/07/20 00:57:01;;;;;;;10.57;5.68;;;;;;;;;;4732028;30;20067;-69
2022/07/20 00:59:32;;;;;;;13.23;5.55;;;;;;;;;;4783001;29;20043;-70
2022/07/20 01:02:02;;;;;;;12.43;5.47;;;;;;;;;;4800044;29;20491;-71
2022/07/20 01:04:33;;;;;;;13.52;5.75;;;;;;;;;;4797423;29;20452;-69
2022/07/20 01:07:03;;;;;;;13.20;5.93;;;;;;;;;;4784535;29;20095;-70
2022/07/20 01:09:33;;;;;;;13.75;5.90;;;;;;;;;;4800332;29;20507;-69
2022/07/20 01:12:04;;;;;;;12.00;5.93;;;;;;;;;;4799817;29;20546;-69
2022/07/20 01:14:35;;;;;;;13.45;5.63;;;;;;;;;;4809790;29;20059;-70
2022/07/20 01:17:05;;;;;;;9.98;4.90;;;;;;;;;;4773593;29;20089;-69
2022/07/20 01:19:35;;;;;;;12.93;5.47;;;;;;;;;;4818781;29;20085;-70
2022/07/20 01:22:06;;;;;;;9.60;5.32;;;;;;;;;;4817875;29;20189;-70
2022/07/20 01:24:36;;;;;;;10.27;5.40;;;;;;;;;;4818258;29;20063;-70
2022/07/20 01:27:06;;;;;;;10.95;5.38;;;;;;;;;;4818477;29;20069;-69
2022/07/20 01:29:37;;;;;;;11.07;5.55;;;;;;;;;;4829202;29;20528;-71
2022/07/20 01:32:07;;;;;;;11.48;6.20;;;;;;;;;;4790395;29;20063;-70
2022/07/20 01:34:37;;;;;;;11.32;6.03;;;;;;;;;;4775660;29;20079;-70
2022/07/20 01:37:07;;;;;;;13.27;5.70;;;;;;;;;;4809333;29;20062;-70
2022/07/20 01:39:38;;;;;;;14.25;5.63;;;;;;;;;;4859448;29;20058;-70
2022/07/20 01:42:08;;;;;;;11.00;5.72;;;;;;;;;;4813456;29;20077;-70
2022/07/20 01:44:38;;;;;;;12.57;5.63;;;;;;;;;;4859491;29;20065;-70
2022/07/20 01:47:08;;;;;;;10.38;6.00;;;;;;;;;;4813612;29;20586;-70
2022/07/20 01:49:39;;;;;;;11.40;5.90;;;;;;;;;;4859226;29;20486;-70
2022/07/20 01:52:09;;;;;;;12.10;5.63;;;;;;;;;;4858462;29;20541;-70
2022/07/20 01:54:40;;;;;;;13.40;5.78;;;;;;;;;;4840867;29;20057;-70
2022/07/20 01:57:09;;;;;;;11.88;5.35;;;;;;;;;;4803811;29;20047;-70
2022/07/20 01:59:40;;;;;;;14.90;6.07;;;;;;;;;;4804124;29;20070;-70
2022/07/20 02:02:10;;;;;;;10.55;5.68;;;;;;;;;;4774052;29;20455;-70
2022/07/20 02:04:41;;;;;;;11.18;5.65;;;;;;;;;;4804158;29;20504;-71
2022/07/20 02:07:11;;;;;;;10.55;5.82;;;;;;;;;;4818851;29;20055;-70
2022/07/20 02:09:41;;;;;;;10.63;5.32;;;;;;;;;;4812412;29;20058;-70
2022/07/20 02:12:11;;;;;;;10.95;6.22;;;;;;;;;;4821693;29;20065;-70
2022/07/20 02:14:42;;;;;;;11.68;5.35;;;;;;;;;;4822148;29;20058;-70
2022/07/20 02:17:12;;;;;;;13.10;5.32;;;;;;;;;;4777325;29;20059;-70
2022/07/20 02:19:42;;;;;;;14.05;6.32;;;;;;;;;;4821787;29;20050;-69
2022/07/20 02:22:13;;;;;;;12.80;5.53;;;;;;;;;;4822020;29;20059;-71
2022/07/20 02:24:43;;;;;;;16.60;6.28;;;;;;;;;;4822072;29;20066;-70
2022/07/20 02:27:13;;;;;;;16.90;7.47;;;;;;;;;;4821603;29;20054;-70
2022/07/20 02:29:43;;;;;;;17.23;6.85;;;;;;;;;;4821623;29;20050;-70
2022/07/20 02:32:13;;;;;;;17.52;6.15;;;;;;;;;;4821566;29;20053;-70
2022/07/20 02:34:44;;;;;;;16.55;6.72;;;;;;;;;;4831118;29;20073;-70
2022/07/20 02:37:14;;;;;;;14.38;6.57;;;;;;;;;;4842702;29;20069;-70
2022/07/20 02:39:44;;;;;;;14.85;5.95;;;;;;;;;;4842102;29;20050;-69
2022/07/20 02:42:15;;;;;;;17.65;7.15;;;;;;;;;;4842355;29;20050;-70
2022/07/20 02:44:45;;;;;;;18.45;6.93;;;;;;;;;;4841729;29;20054;-69
2022/07/20 02:47:15;;;;;;;16.50;7.53;;;;;;;;;;4841524;29;20407;-70
2022/07/20 02:49:45;;;;;;;16.55;7.07;;;;;;;;;;4809772;29;20054;-70
2022/07/20 02:52:16;;;;;;;13.10;6.55;;;;;;;;;;4842356;29;20057;-70
2022/07/20 02:54:46;;;;;;;16.83;7.95;;;;;;;;;;4809717;29;20065;-70
2022/07/20 02:57:16;;;;;;;15.75;6.97;;;;;;;;;;4824946;29;20074;-70
2022/07/20 02:59:46;;;;;;;18.05;6.90;;;;;;;;;;4809440;29;20418;-69
2022/07/20 03:02:16;;;;;;;23.33;7.38;;;;;;;;;;4841931;29;20507;-69
2022/07/20 03:04:47;;;;;;;16.85;7.55;;;;;;;;;;4841836;29;20041;-70
2022/07/20 03:07:18;;;;;;;17.30;7.63;;;;;;;;;;4842154;29;20072;-71
2022/07/20 03:09:48;;;;;;;18.73;6.57;;;;;;;;;;4841666;29;20419;-71
2022/07/20 03:12:18;;;;;;;13.38;6.55;;;;;;;;;;4842182;29;20384;-71
2022/07/20 03:14:49;;;;;;;16.25;6.50;;;;;;;;;;4842008;29;20054;-71
2022/07/20 03:17:19;;;;;;;20.38;6.22;;;;;;;;;;4841548;29;20077;-70
2022/07/20 03:19:49;;;;;;;16.10;6.45;;;;;;;;;;4870354;29;20062;-70
2022/07/20 03:22:20;;;;;;;21.20;7.53;;;;;;;;;;4841661;29;20065;-72
2022/07/20 03:24:51;;;;;;;18.48;6.50;;;;;;;;;;4841570;29;20053;-71
2022/07/20 03:27:21;;;;;;;16.95;6.55;;;;;;;;;;4854154;29;20518;-71
2022/07/20 03:29:52;;;;;;;16.02;6.25;;;;;;;;;;4854307;29;20058;-71
2022/07/20 03:32:22;;;;;;;16.55;6.60;;;;;;;;;;4841292;29;20054;-71
2022/07/20 03:34:52;;;;;;;12.43;6.45;;;;;;;;;;4841069;29;20038;-72
2022/07/20 03:37:22;;;;;;;18.13;6.45;;;;;;;;;;4875428;29;20557;-71
2022/07/20 03:39:53;;;;;;;13.05;6.30;;;;;;;;;;4845476;29;20057;-73
2022/07/20 03:42:23;;;;;;;12.57;5.95;;;;;;;;;;4875854;29;20153;-70
2022/07/20 03:44:54;;;;;;;15.80;5.88;;;;;;;;;;4875559;29;20049;-69
2022/07/20 03:47:24;;;;;;;23.02;6.25;;;;;;;;;;4875826;29;20055;-70
2022/07/20 03:49:54;;;;;;;15.85;5.85;;;;;;;;;;4844576;29;20061;-70
2022/07/20 03:52:25;;;;;;;13.02;5.68;;;;;;;;;;4875792;29;20060;-70
2022/07/20 03:54:56;;;;;;;17.35;6.50;;;;;;;;;;4841160;29;20463;-70
2022/07/20 03:57:26;;;;;;;19.63;6.30;;;;;;;;;;4838296;29;20491;-71
2022/07/20 03:59:56;;;;;;;14.52;5.88;;;;;;;;;;4838283;29;20061;-71
2022/07/20 04:02:26;;;;;;;11.10;6.07;;;;;;;;;;4819883;29;20097;-71
2022/07/20 04:04:57;;;;;;;18.17;6.07;;;;;;;;;;4820465;29;20586;-71
2022/07/20 04:07:27;;;;;;;14.05;5.90;;;;;;;;;;4819939;29;20504;-71
2022/07/20 04:09:58;;;;;;;12.25;5.53;;;;;;;;;;4820248;29;20534;-71
2022/07/20 04:12:28;;;;;;;11.90;5.60;;;;;;;;;;4837628;29;20534;-72
2022/07/20 04:14:59;;;;;;;14.70;5.82;;;;;;;;;;4775830;29;20058;-72
2022/07/20 04:17:29;;;;;;;12.98;6.00;;;;;;;;;;4801891;29;20059;-72
2022/07/20 04:19:59;;;;;;;11.10;5.45;;;;;;;;;;4801683;29;20059;-72
2022/07/20 04:22:30;;;;;;;9.68;5.25;;;;;;;;;;4757264;29;20122;-72
2022/07/20 04:25:01;;;;;;;10.10;5.13;;;;;;;;;;4804497;29;20058;-71
2022/07/20 04:27:31;;;;;;;10.43;5.75;;;;;;;;;;4818654;29;20158;-72
2022/07/20 04:30:01;;;;;;;13.93;5.13;;;;;;;;;;4802108;29;20067;-72
2022/07/20 04:32:31;;;;;;;11.38;5.32;;;;;;;;;;4810110;29;20066;-69
2022/07/20 04:35:02;;;;;;;12.10;5.85;;;;;;;;;;4783472;29;20055;-71
2022/07/20 04:37:32;;;;;;;12.52;5.88;;;;;;;;;;4783504;29;20059;-70
2022/07/20 04:40:06;;;;;;;12.00;5.70;;;;;;;;;;4783583;29;20059;-70
2022/07/20 04:42:37;;;;;;;12.32;5.75;;;;;;;;;;4783605;29;20070;-70
2022/07/20 04:45:07;;;;;;;11.95;5.70;;;;;;;;;;4802153;29;20063;-70
2022/07/20 04:47:37;;;;;;;10.60;5.35;;;;;;;;;;4805040;29;20062;-71
2022/07/20 04:50:08;;;;;;;10.00;5.53;;;;;;;;;;4819845;29;20070;-71
2022/07/20 04:52:40;;;;;;;10.13;5.65;;;;;;;;;;4819571;29;20069;-70
2022/07/20 04:55:10;;;;;;;10.15;5.47;;;;;;;;;;4819638;29;20527;-71
2022/07/20 04:57:40;;;;;;;11.82;5.60;;;;;;;;;;4783091;29;20055;-71
2022/07/20 05:00:12;;;;;;;11.18;5.57;;;;;;;;;;4783193;29;20051;-70
2022/07/20 05:02:42;;;;;;;11.57;5.38;;;;;;;;;;4774198;30;20056;-69
2022/07/20 05:05:12;;;;;;;13.10;5.93;;;;;;;;;;4721366;30;20064;-71
2022/07/20 05:07:42;;;;;;;12.70;5.50;;;;;;;;;;4780065;29;20072;-70
2022/07/20 05:10:13;;;;;;;11.73;5.38;;;;;;;;;;4768458;30;20060;-70
2022/07/20 05:12:44;;;;;;;9.52;5.22;;;;;;;;;;4814849;29;20495;-69
2022/07/20 05:15:14;;;;;;;10.90;5.65;;;;;;;;;;4841213;29;20106;-70
2022/07/20 05:17:44;;;;;;;12.07;5.40;;;;;;;;;;4841254;29;20078;-69
2022/07/20 05:20:14;;;;;;;15.07;6.32;;;;;;;;;;4841484;29;20056;-70
2022/07/20 05:22:44;;;;;;;10.98;5.90;;;;;;;;;;4841277;29;20066;-70
2022/07/20 05:25:15;;;;;;;16.38;6.45;;;;;;;;;;4841292;29;20064;-70
2022/07/20 05:27:45;;;;;;;14.82;6.15;;;;;;;;;;4841107;29;20046;-70
2022/07/20 05:30:16;;;;;;;12.00;5.45;;;;;;;;;;4787228;29;20121;-70
2022/07/20 05:32:46;;;;;;;12.07;5.97;;;;;;;;;;4822717;29;20054;-70
2022/07/20 05:35:17;;;;;;;9.73;5.10;;;;;;;;;;4840619;29;20054;-70
2022/07/20 05:37:47;;;;;;;10.50;5.43;;;;;;;;;;4853573;29;20068;-70
2022/07/20 05:40:18;;;;;;;9.30;5.35;;;;;;;;;;4878065;29;20056;-70
2022/07/20 05:42:48;;;;;;;9.40;4.78;;;;;;;;;;4878131;29;20049;-70
2022/07/20 05:45:19;;;;;;;10.73;5.45;;;;;;;;;;4847788;29;20061;-70
2022/07/20 05:47:49;;;;;;;11.80;5.70;;;;;;;;;;4877944;29;20052;-70
2022/07/20 05:50:19;;;;;;;11.23;5.38;;;;;;;;;;4835298;29;20050;-70
2022/07/20 05:52:50;;;;;;;10.50;5.28;;;;;;;;;;4842988;29;20139;-70
2022/07/20 05:55:21;;;;;;;10.48;5.20;;;;;;;;;;4825939;29;20061;-70
2022/07/20 05:57:51;;;;;;;10.60;4.88;;;;;;;;;;4877404;29;20056;-70
2022/07/20 06:00:21;;;;;;;9.98;4.80;;;;;;;;;;4843202;29;20045;-70
2022/07/20 06:02:51;;;;;;;10.93;5.38;;;;;;;;;;4859044;29;20067;-70
2022/07/20 06:05:22;;;;;;;11.50;5.20;;;;;;;;;;4858952;29;20065;-69
2022/07/20 06:07:55;;;;;;;10.70;5.65;;;;;;;;;;4858925;29;20056;-70
2022/07/20 06:10:26;;;;;;;8.90;4.90;;;;;;;;;;4813084;29;20054;-70
2022/07/20 06:12:57;;;;;;;10.68;5.22;;;;;;;;;;4794830;29;20061;-70
2022/07/20 06:15:34;;;;;;;8.85;4.82;;;;;;;;;;4795190;29;20093;-70
2022/07/20 06:18:06;;;;;;;9.60;4.82;;;;;;;;;;4840281;29;20054;-69
2022/07/20 06:20:37;;;;;;;9.93;4.97;;;;;;;;;;4840358;29;20616;-70
2022/07/20 06:23:07;;;;;;;10.43;5.43;;;;;;;;;;4840387;29;20064;-70
2022/07/20 06:25:38;;;;;;;9.65;4.95;;;;;;;;;;4840328;29;20065;-71
2022/07/20 06:28:08;;;;;;;10.10;4.93;;;;;;;;;;4840093;29;20065;-71
2022/07/20 06:30:39;;;;;;;10.25;5.03;;;;;;;;;;4794988;29;20057;-70
2022/07/20 06:33:09;;;;;;;12.25;5.00;;;;;;;;;;4840247;29;20054;-70
2022/07/20 06:35:39;;;;;;;12.73;5.63;;;;;;;;;;4819793;29;20051;-70
2022/07/20 06:38:09;;;;;;;12.02;5.60;;;;;;;;;;4831530;29;20057;-71
2022/07/20 06:40:40;;;;;;;12.18;5.28;;;;;;;;;;4839938;29;20235;-71
2022/07/20 06:43:10;;;;;;;16.13;5.88;;;;;;;;;;4824345;29;20058;-70
2022/07/20 06:45:40;;;;;;;13.38;5.05;;;;;;;;;;4840044;29;20065;-70
2022/07/20 06:48:11;;;;;;;12.18;5.30;;;;;;;;;;4840129;29;20068;-70
2022/07/20 06:50:41;;;;;;;13.35;5.20;;;;;;;;;;4812892;29;20065;-70
2022/07/20 06:53:12;;;;;;;10.75;5.03;;;;;;;;;;4803223;29;20520;-70
2022/07/20 06:55:43;;;;;;;12.30;5.32;;;;;;;;;;4803362;29;20503;-70
2022/07/20 06:58:13;;;;;;;19.25;5.55;;;;;;;;;;4803399;29;20078;-70
2022/07/20 07:00:43;;;;;;;14.68;5.47;;;;;;;;;;4803050;29;20070;-70
2022/07/20 07:03:13;;;;;;;11.35;5.28;;;;;;;;;;4773279;29;20055;-70
2022/07/20 07:05:44;;;;;;;12.00;5.25;;;;;;;;;;4803336;29;20144;-71
2022/07/20 07:08:14;;;;;;;12.15;5.28;;;;;;;;;;4803139;29;20215;-70
2022/07/20 07:10:44;;;;;;;13.25;5.20;;;;;;;;;;4802554;29;20051;-70
2022/07/20 07:13:15;;;;;;;10.25;4.80;;;;;;;;;;4817842;29;20065;-71
2022/07/20 07:15:45;;;;;;;14.43;5.28;;;;;;;;;;4794168;29;20063;-70
2022/07/20 07:18:15;;;;;;;11.57;5.72;;;;;;;;;;4784831;30;20060;-70
2022/07/20 07:20:45;;;;;;;12.80;5.50;;;;;;;;;;4776305;30;20068;-70
2022/07/20 07:23:16;;;;;;;9.45;4.85;;;;;;;;;;4767001;30;20075;-71
2022/07/20 07:25:46;;;;;;;11.20;5.07;;;;;;;;;;4781308;30;20441;-70
2022/07/20 07:28:16;;;;;;;12.15;5.47;;;;;;;;;;4792635;29;20054;-70
2022/07/20 07:30:50;;;;;;;11.20;5.25;;;;;;;;;;4826991;29;20212;-70
2022/07/20 07:33:25;;;;;;;11.98;4.85;;;;;;;;;;4802512;29;20055;-70
2022/07/20 07:35:55;;;;;;;16.60;5.32;;;;;;;;;;4802742;29;20552;-70
2022/07/20 07:38:25;;;;;;;15.00;5.25;;;;;;;;;;4805387;29;20047;-70
2022/07/20 07:40:56;;;;;;;13.02;5.10;;;;;;;;;;4835333;29;20531;-70
2022/07/20 07:43:27;;;;;;;8.65;4.30;;;;;;;;;;4820824;29;20134;-71
2022/07/20 07:45:57;;;;;;;10.52;4.47;;;;;;;;;;4820494;29;20058;-70
2022/07/20 07:48:27;;;;;;;11.48;4.85;;;;;;;;;;4814784;29;20062;-71
2022/07/20 07:50:57;;;;;;;12.95;5.10;;;;;;;;;;4830063;29;20061;-70
2022/07/20 07:53:28;;;;;;;16.05;5.07;;;;;;;;;;4823919;29;20050;-70
2022/07/20 07:55:58;;;;;;;14.32;4.72;;;;;;;;;;4839077;29;20514;-70
2022/07/20 07:58:28;;;;;;;10.68;4.72;;;;;;;;;;4838522;29;20530;-71
2022/07/20 08:00:59;;;;;;;12.95;4.90;;;;;;;;;;4819938;29;20070;-70
2022/07/20 08:03:29;;;;;;;9.45;5.35;;;;;;;;;;4820341;29;20061;-70
2022/07/20 08:06:03;;;;;;;14.73;4.95;;;;;;;;;;4820479;29;20066;-70
2022/07/20 08:08:34;;;;;;;10.38;4.60;;;;;;;;;;4820234;29;20468;-70
2022/07/20 08:11:05;;;;;;;14.50;4.90;;;;;;;;;;4820032;29;20545;-70
2022/07/20 08:13:36;;;;;;;13.20;5.22;;;;;;;;;;4820356;29;20069;-70
2022/07/20 08:16:07;;;;;;;11.25;4.75;;;;;;;;;;4814195;29;20089;-70
2022/07/20 08:18:37;;;;;;;9.85;4.68;;;;;;;;;;4807936;29;20058;-70
2022/07/20 08:21:07;;;;;;;11.18;4.53;;;;;;;;;;4807669;29;20597;-70
2022/07/20 08:23:38;;;;;;;13.35;4.60;;;;;;;;;;4838778;29;20058;-70
2022/07/20 08:26:09;;;;;;;14.40;4.25;;;;;;;;;;4819700;29;20058;-71
2022/07/20 08:28:40;;;;;;;10.60;3.80;;;;;;;;;;4789570;29;20063;-70
2022/07/20 08:31:10;;;;;;;9.30;4.97;;;;;;;;;;4837635;29;20145;-70
2022/07/20 08:33:40;;;;;;;8.82;4.55;;;;;;;;;;4838164;29;20062;-70
2022/07/20 08:36:11;;;;;;;13.60;4.70;;;;;;;;;;4838022;29;20061;-70
2022/07/20 08:38:42;;;;;;;8.55;3.90;;;;;;;;;;4863011;29;20568;-70
2022/07/20 08:41:13;;;;;;;9.20;3.88;;;;;;;;;;4836579;29;20058;-70
2022/07/20 08:43:43;;;;;;;9.02;4.60;;;;;;;;;;4819765;29;20205;-71
2022/07/20 08:46:14;;;;;;;10.15;4.25;;;;;;;;;;4819672;29;20050;-70
2022/07/20 08:48:47;;;;;;;12.05;4.45;;;;;;;;;;4819845;29;20062;-70
2022/07/20 08:51:17;;;;;;;11.45;4.03;;;;;;;;;;4837804;29;20066;-70
2022/07/20 08:53:48;;;;;;;10.25;4.65;;;;;;;;;;4810032;29;20436;-70
2022/07/20 08:56:19;;;;;;;;;;;;;;;;;;4783834;29;20089;-70
2022/07/20 08:58:50;;;;;;;7.68;4.05;;;;;;;;;;4768761;29;19925;-70
2022/07/20 09:01:27;;;;;;;8.50;4.38;;;;;;;;;;4783452;29;20070;-70
2022/07/20 09:04:09;;;;;;;7.63;4.35;;;;;;;;;;4804147;29;20051;-70
2022/07/20 09:06:48;;;;;;;8.93;4.75;;;;;;;;;;4819710;29;20171;-70
2022/07/20 09:09:20;;;;;;;13.60;4.47;;;;;;;;;;4851102;29;20403;-71
2022/07/20 09:11:51;;;;;;;;;;;;;;;;;;4878395;29;20506;-69
2022/07/20 09:14:47;;;;;;;10.10;3.70;;;;;;;;;;4847166;29;19923;-70
2022/07/20 09:17:23;;;;;;;8.00;4.25;;;;;;;;;;4893502;29;20072;-70
2022/07/20 09:20:06;;;;;;;9.35;4.15;;;;;;;;;;4877367;29;20052;-70
2022/07/20 09:22:38;;;;;;;8.70;4.07;;;;;;;;;;4851904;29;20426;-70
2022/07/20 09:25:13;;;;;;;7.95;3.95;;;;;;;;;;4843817;29;20060;-70
2022/07/20 09:27:44;;;;;;;7.43;3.90;;;;;;;;;;4874668;29;20064;-70
2022/07/20 09:30:16;;;;;;;9.02;3.83;;;;;;;;;;4859082;29;20053;-70
2022/07/20 09:33:03;;;;;;;8.40;4.22;;;;;;;;;;4874291;29;20056;-70
2022/07/20 09:35:35;;;;;;;7.22;3.85;;;;;;;;;;4859361;29;20049;-70
2022/07/20 09:38:08;;;;;;;9.45;4.25;;;;;;;;;;4837593;29;20610;-70
2022/07/20 09:40:45;;;;;;;7.57;3.90;;;;;;;;;;4797248;29;20059;-70
2022/07/20 09:43:26;;;;;;;8.20;3.97;;;;;;;;;;4800796;29;20051;-69
2022/07/20 09:46:11;;;;;;;10.73;3.45;;;;;;;;;;4786377;29;20409;-70
2022/07/20 09:48:44;;;;;;;8.07;4.35;;;;;;;;;;4800858;29;20074;-71
2022/07/20 09:51:19;;;;;;;7.47;3.70;;;;;;;;;;4756641;29;20623;-71
2022/07/20 09:53:52;;;;;;;10.05;3.83;;;;;;;;;;4800992;29;20066;-71
2022/07/20 09:56:27;;;;;;;6.80;3.85;;;;;;;;;;4804132;29;20066;-70
2022/07/20 09:59:00;;;;;;;6.07;3.40;;;;;;;;;;4760047;29;20078;-70
2022/07/20 10:01:33;;;;;;;7.88;3.80;;;;;;;;;;4789615;29;20067;-70
2022/07/20 10:04:06;;;;;;;7.07;3.50;;;;;;;;;;4785824;29;20055;-70
2022/07/20 10:06:42;;;;;;;6.75;3.65;;;;;;;;;;4786187;29;20148;-70
2022/07/20 10:09:17;;;;;;;8.25;3.85;;;;;;;;;;4727657;29;20066;-69
2022/07/20 10:11:48;;;;;;;7.35;3.95;;;;;;;;;;4785926;29;20063;-68
2022/07/20 10:14:21;;;;;;;8.48;4.32;;;;;;;;;;4785991;29;20055;-69
2022/07/20 10:16:53;;;;;;;11.13;6.03;;;;;;;;;;4762906;29;20130;-69
2022/07/20 10:19:42;;;;;;;18.10;6.65;;;;;;;;;;4857432;29;20073;-69
2022/07/20 10:22:14;;;;;;;13.90;6.35;;;;;;;;;;4827875;29;20062;-69
2022/07/20 10:24:46;;;;;;;9.48;4.88;;;;;;;;;;4827422;29;20101;-69
2022/07/20 10:27:28;;;;;;;8.68;4.18;;;;;;;;;;4858656;29;20498;-69
2022/07/20 10:30:15;;;;;;;10.27;4.03;;;;;;;;;;4858600;29;20135;-69
2022/07/20 10:32:59;;;;;;;7.90;3.92;;;;;;;;;;4858054;29;20494;-69
2022/07/20 10:35:30;;;;;;;;;;;;;;;;;;4844048;29;20050;-69
2022/07/20 10:38:01;;;;;;;6.55;3.58;;;;;;;;;;4827991;29;19931;-69
2022/07/20 10:40:31;;;;;;;7.47;4.20;;;;;;;;;;4858467;29;20058;-69
2022/07/20 10:43:15;;;;;;;8.13;4.80;;;;;;;;;;4842965;29;20049;-69
2022/07/20 10:45:46;;;;;;;6.57;3.92;;;;;;;;;;4843159;29;20080;-69
2022/07/20 10:48:18;;;;;;;8.40;3.65;;;;;;;;;;4858353;29;20112;-69
2022/07/20 10:50:51;;;;;;;7.25;3.72;;;;;;;;;;4843050;29;20058;-69
2022/07/20 10:53:24;;;;;;;11.98;4.40;;;;;;;;;;4858334;29;20454;-69
2022/07/20 10:55:58;;;;;;;9.82;4.35;;;;;;;;;;4839412;29;20054;-69
2022/07/20 10:58:37;;;;;;;12.73;4.05;;;;;;;;;;4817150;29;20051;-69
2022/07/20 11:01:10;;;;;;;12.27;3.63;;;;;;;;;;4803266;29;20059;-69
2022/07/20 11:03:49;;;;;;;8.63;3.85;;;;;;;;;;4803263;29;20062;-69
2022/07/20 11:06:25;;;;;;;8.77;3.88;;;;;;;;;;4769367;30;20066;-69
2022/07/20 11:08:58;;;;;;;11.90;4.30;;;;;;;;;;4785260;29;20090;-68
2022/07/20 11:11:35;;;;;;;10.23;3.80;;;;;;;;;;4801731;29;20061;-68
2022/07/20 11:14:09;;;;;;;8.88;3.55;;;;;;;;;;4744038;29;20069;-68
2022/07/20 11:16:40;;;;;;;9.23;3.90;;;;;;;;;;4803067;29;20063;-68
2022/07/20 11:19:11;;;;;;;8.90;3.78;;;;;;;;;;4788003;29;20050;-68
2022/07/20 11:21:43;;;;;;;6.70;3.58;;;;;;;;;;4802933;29;20078;-68
2022/07/20 11:24:25;;;;;;;6.28;3.63;;;;;;;;;;4802058;29;20070;-68
2022/07/20 11:26:56;;;;;;;5.95;3.33;;;;;;;;;;4799706;29;20567;-68
2022/07/20 11:29:27;;;;;;;5.72;3.40;;;;;;;;;;4784168;30;20063;-69
2022/07/20 11:32:08;;;;;;;7.07;3.60;;;;;;;;;;4799536;29;20515;-69
2022/07/20 11:34:49;;;;;;;6.45;3.88;;;;;;;;;;4802155;29;20058;-69
2022/07/20 11:37:20;;;;;;;7.40;3.72;;;;;;;;;;4819926;29;20058;-69
2022/07/20 11:39:51;;;;;;;7.15;3.72;;;;;;;;;;4790052;29;20444;-69
2022/07/20 11:42:21;;;;;;;6.18;4.00;;;;;;;;;;4820192;29;20058;-69
2022/07/20 11:45:01;;;;;;;5.38;3.10;;;;;;;;;;4836367;29;20054;-70
2022/07/20 11:47:32;;;;;;;6.60;3.65;;;;;;;;;;4818845;29;20598;-69
2022/07/20 11:50:09;;;;;;;6.10;3.63;;;;;;;;;;4838481;29;20057;-69
2022/07/20 11:52:50;;;;;;;6.70;3.78;;;;;;;;;;4775181;29;20058;-69
2022/07/20 11:55:32;;;;;;;;;;;;;;;;;;4820968;29;20054;-69
2022/07/20 11:58:04;;;;;;;6.85;3.92;;;;;;;;;;4805732;29;19925;-68
2022/07/20 12:00:36;;;;;;;10.65;5.72;;;;;;;;;;4820430;29;20074;-68
2022/07/20 12:03:08;;;;;;;8.25;4.85;;;;;;;;;;4820239;29;20058;-68
2022/07/20 12:05:38;;;;;;;10.20;5.70;;;;;;;;;;4820185;29;20069;-68
2022/07/20 12:08:13;;;;;;;14.73;7.22;;;;;;;;;;4819759;29;20058;-68
2022/07/20 12:10:44;;;;;;;18.98;9.07;;;;;;;;;;4801966;29;20583;-68
2022/07/20 12:13:16;;;;;;;16.77;8.75;;;;;;;;;;4806824;29;20054;-68
2022/07/20 12:15:54;;;;;;;20.10;9.13;;;;;;;;;;4808416;29;20074;-69
2022/07/20 12:18:32;;;;;;;16.77;9.68;;;;;;;;;;4819916;29;20059;-68
2022/07/20 12:21:10;;;;;;;17.95;9.23;;;;;;;;;;4820534;29;20218;-69
2022/07/20 12:23:46;;;;;;;14.63;8.43;;;;;;;;;;4804947;29;20058;-69
2022/07/20 12:26:33;;;;;;;17.50;9.80;;;;;;;;;;4820329;29;20077;-69
2022/07/20 12:29:23;;;;;;;18.85;9.90;;;;;;;;;;4819986;29;20065;-70
2022/07/20 12:32:05;;;;;;;18.70;9.60;;;;;;;;;;4857725;29;20056;-69
2022/07/20 12:34:55;;;;;;;18.35;8.57;;;;;;;;;;4857858;29;20052;-69
2022/07/20 12:37:52;;;;;;;14.18;7.60;;;;;;;;;;4854986;29;20054;-69
2022/07/20 12:40:37;;;;;;;14.45;7.25;;;;;;;;;;4857903;29;20045;-68
2022/07/20 12:43:34;;;;;;;18.83;7.95;;;;;;;;;;4869942;29;20045;-70
2022/07/20 12:46:07;;;;;;;14.27;6.75;;;;;;;;;;4856540;29;20049;-69
2022/07/20 12:48:50;;;;;;;14.57;6.35;;;;;;;;;;4867743;29;20061;-69
2022/07/20 12:51:21;;;;;;;11.65;6.13;;;;;;;;;;4855305;29;20064;-69
2022/07/20 12:53:52;;;;;;;12.45;5.53;;;;;;;;;;4858490;29;20063;-70
2022/07/20 12:56:22;;;;;;;12.30;5.82;;;;;;;;;;4858578;29;20045;-70
2022/07/20 12:58:54;;;;;;;14.95;5.40;;;;;;;;;;4857515;29;20052;-70
2022/07/20 13:01:30;;;;;;;8.77;4.93;;;;;;;;;;4856435;29;20045;-70
2022/07/20 13:04:01;;;;;;;8.00;4.20;;;;;;;;;;4810186;29;20046;-70
2022/07/20 13:06:35;;;;;;;11.55;4.85;;;;;;;;;;4858546;29;20416;-70
2022/07/20 13:09:05;;;;;;;9.15;4.70;;;;;;;;;;4857494;29;20056;-69
2022/07/20 13:11:38;;;;;;;11.38;4.75;;;;;;;;;;4856472;29;20053;-69
2022/07/20 13:14:08;;;;;;;;;;;;;;;;;;4856259;29;20062;-70
2022/07/20 13:16:39;;;;;;;9.38;4.90;;;;;;;;;;4874470;29;19931;-69
2022/07/20 13:19:10;;;;;;;8.93;4.32;;;;;;;;;;4844809;29;20073;-70
2022/07/20 13:21:41;;;;;;;11.70;5.43;;;;;;;;;;4874155;29;20482;-69
2022/07/20 13:24:15;;;;;;;34.15;14.55;;;;;;;;;;4872257;29;20053;-69
2022/07/20 13:26:46;;;;;;;18.38;6.80;;;;;;;;;;4873113;29;20061;-70
2022/07/20 13:29:17;;;;;;;61.55;22.27;;;;;;;;;;4876097;29;20065;-69
2022/07/20 13:31:47;;;;;;;23.52;9.50;;;;;;;;;;4891467;29;20064;-70
2022/07/20 13:34:20;;;;;;;66.70;28.90;;;;;;;;;;4879438;29;20061;-68
2022/07/20 13:36:50;;;;;;;18.20;7.63;;;;;;;;;;4881296;29;20060;-70
2022/07/20 13:39:21;;;;;;;27.95;13.68;;;;;;;;;;4888714;29;20538;-69
2022/07/20 13:41:50;;;;;;;21.80;10.15;;;;;;;;;;4888625;29;20509;-69
2022/07/20 13:44:21;;;;;;;15.48;5.65;;;;;;;;;;4880739;29;20065;-69
2022/07/20 13:46:52;;;;;;;38.03;21.02;;;;;;;;;;4846192;29;20056;-69
2022/07/20 13:49:22;;;;;;;14.35;5.78;;;;;;;;;;4885084;29;20060;-70
2022/07/20 13:51:52;;;;;;;19.98;11.23;;;;;;;;;;4828878;29;20532;-69
2022/07/20 13:54:43;;;;;;;12.73;5.60;;;;;;;;;;4824299;29;20062;-68
2022/07/20 13:57:13;;;;;;;9.68;4.13;;;;;;;;;;4828071;29;20073;-68
2022/07/20 13:59:44;;;;;;;8.95;4.32;;;;;;;;;;4811413;29;20417;-68
2022/07/20 14:02:14;;;;;;;6.15;2.65;;;;;;;;;;4802735;29;20413;-68
2022/07/20 14:04:45;;;;;;;8.32;2.97;;;;;;;;;;4779527;29;20058;-68
2022/07/20 14:07:15;;;;;;;5.43;2.47;;;;;;;;;;4803957;29;20067;-67
2022/07/20 14:09:46;;;;;;;5.32;2.33;;;;;;;;;;4803684;29;20073;-68
2022/07/20 14:12:17;;;;;;;8.80;3.13;;;;;;;;;;4769784;30;20572;-68
2022/07/20 14:14:50;;;;;;;9.35;2.17;;;;;;;;;;4755996;29;20142;-69
2022/07/20 14:17:20;;;;;;;4.22;1.48;;;;;;;;;;4784738;29;20059;-68
2022/07/20 14:19:51;;;;;;;6.00;2.13;;;;;;;;;;4802827;29;20063;-67
2022/07/20 14:22:21;;;;;;;3.72;1.48;;;;;;;;;;4800065;29;20066;-67
2022/07/20 14:24:51;;;;;;;4.05;1.33;;;;;;;;;;4772949;29;20066;-68
2022/07/20 14:27:22;;;;;;;3.53;1.42;;;;;;;;;;4826054;29;20577;-68
2022/07/20 14:29:52;;;;;;;2.95;1.45;;;;;;;;;;4830838;29;20073;-68
2022/07/20 14:32:23;;;;;;;2.35;1.27;;;;;;;;;;4829484;29;20069;-67
2022/07/20 14:34:54;;;;;;;2.60;1.27;;;;;;;;;;4825190;29;20062;-68
2022/07/20 14:37:25;;;;;;;3.78;1.40;;;;;;;;;;4808275;29;20060;-67
2022/07/20 14:39:55;;;;;;;3.08;1.25;;;;;;;;;;4790945;29;20067;-68
2022/07/20 14:42:27;;;;;;;1.85;1.20;;;;;;;;;;4821411;29;20058;-68
2022/07/20 14:44:57;;;;;;;;;;;;;;;;;;4821549;29;20058;-67
2022/07/20 14:47:27;;;;;;;2.47;1.13;;;;;;;;;;4805993;29;19932;-68
2022/07/20 14:49:57;;;;;;;2.35;1.20;;;;;;;;;;4833227;29;20604;-67
2022/07/20 14:52:28;;;;;;;1.98;1.05;;;;;;;;;;4839941;29;20066;-67
2022/07/20 14:54:59;;;;;;;5.88;1.33;;;;;;;;;;4839944;29;20383;-66
2022/07/20 14:57:29;;;;;;;2.35;1.02;;;;;;;;;;4794342;29;20100;-67
2022/07/20 14:59:59;;;;;;;4.38;1.23;;;;;;;;;;4840031;29;20057;-66
2022/07/20 15:02:30;;;;;;;1.85;1.00;;;;;;;;;;4839714;29;20061;-67
2022/07/20 15:05:02;;;;;;;2.53;1.20;;;;;;;;;;4857448;29;20056;-67
2022/07/20 15:07:34;;;;;;;2.78;1.20;;;;;;;;;;4860618;29;20057;-65